Berettyoujfalu, Hungary
Current Conditions -  °F | °C
As of 2:45 PM on Wednesday 26 Nov 2014 (Local Time) from LHDC Reporting Station
Moderate Fog Moderate Fog  
Wind Chill: 32°   Ceiling: 400
Heat Index: 32°   Visibility: 0.43mi
Dew Point: 32°   Wind: 2mph
Humidity: 100%   Direction: 180°S
Pressure: 30.27"   Gusts: NA
Location:  47.23°N, 21.54°E
Report Text: LHDC 261245Z 18002KT 0700 FG OVC004 00/00 Q1025 NOSIG
Loading
Personal Weather Stations






























Interactive Weather Map New forecast layout! Learn more

10-Day Weather Forecast

Advertisements
Track Severe Weather on mobile